Time;durP1;ratioP1;P1;durP2;ratioP2;P2;SDS_P1;SDS_P2;PMS_P1;PMS_P2;Temp;Humidity;BMP_temperature;BMP_pressure;BME280_temperature;BME280_humidity;BME280_pressure;Samples;Min_cycle;Max_cycle;Signal;HPM_P1;HPM_P2
2023/04/07 00:00:37;;;;;;;;;;;17.10;43.80;;;;;;5076565;28;19919;-73
2023/04/07 00:03:05;;;;;;;;;;;17.10;43.90;;;;;;5076287;28;20387;-74
2023/04/07 00:05:31;;;;;;;;;;;17.10;43.80;;;;;;5094428;28;19967;-73
2023/04/07 00:07:56;;;;;;;;;;;17.10;43.80;;;;;;5076255;28;19956;-73
2023/04/07 00:10:22;;;;;;;;;;;17.10;43.80;;;;;;5094359;28;19927;-74
2023/04/07 00:12:47;;;;;;;;;;;17.10;43.80;;;;;;5076064;28;19942;-73
2023/04/07 00:15:13;;;;;;;;;;;17.10;43.80;;;;;;5076318;28;20010;-73
2023/04/07 00:17:39;;;;;;;;;;;17.10;43.90;;;;;;5094514;28;20296;-73
2023/04/07 00:20:04;;;;;;;;;;;17.10;44.60;;;;;;5075936;28;19924;-73
2023/04/07 00:22:30;;;;;;;;;;;17.10;43.80;;;;;;5075840;28;19924;-73
2023/04/07 00:24:55;;;;;;;;;;;17.10;43.80;;;;;;5075887;28;20019;-73
2023/04/07 00:27:22;;;;;;;;;;;17.00;43.80;;;;;;5075993;28;19930;-73
2023/04/07 00:29:47;;;;;;;;;;;17.10;43.90;;;;;;5075758;28;19920;-74
2023/04/07 00:32:13;;;;;;;;;;;17.00;43.90;;;;;;5076035;28;19927;-72
2023/04/07 00:34:38;;;;;;;;;;;17.00;44.00;;;;;;5075884;28;19972;-73
2023/04/07 00:37:05;;;;;;;;;;;17.00;44.10;;;;;;5075973;28;19920;-73
2023/04/07 00:39:31;;;;;;;;;;;16.90;44.20;;;;;;5093718;28;20336;-73
2023/04/07 00:41:56;;;;;;;;;;;16.90;44.30;;;;;;5075902;28;20413;-70
2023/04/07 00:44:22;;;;;;;;;;;16.80;44.30;;;;;;5093566;28;19924;-73
2023/04/07 00:46:48;;;;;;;;;;;16.80;44.40;;;;;;5075753;28;19963;-73
2023/04/07 00:49:14;;;;;;;;;;;16.80;44.50;;;;;;5093586;28;19927;-73
2023/04/07 00:51:39;;;;;;;;;;;16.80;44.60;;;;;;5075528;28;19926;-73
2023/04/07 00:54:05;;;;;;;;;;;16.70;44.60;;;;;;5093739;28;19920;-72
2023/04/07 00:56:31;;;;;;;;;;;16.70;44.70;;;;;;5075548;28;20395;-73
2023/04/07 00:58:56;;;;;;;;;;;16.70;44.70;;;;;;5075151;28;20160;-73
2023/04/07 01:01:24;;;;;;;;;;;16.70;44.80;;;;;;5093244;28;20390;-73
2023/04/07 01:06:32;;;;;;;;;;;16.70;44.90;;;;;;5110333;27;19913;-73
2023/04/07 01:11:57;;;;;;;;;;;16.60;45.00;;;;;;5110209;27;19919;-73
2023/04/07 01:14:23;;;;;;;;;;;16.60;45.00;;;;;;5108713;28;20451;-72
2023/04/07 01:16:50;;;;;;;;;;;16.60;45.00;;;;;;5109201;28;20023;-73
2023/04/07 01:19:30;;;;;;;;;;;16.50;45.00;;;;;;5108810;28;20011;-72
2023/04/07 01:21:57;;;;;;;;;;;16.60;45.10;;;;;;5109103;28;19920;-73
2023/04/07 01:24:33;;;;;;;;;;;16.60;45.20;;;;;;5108889;28;20469;-72
2023/04/07 01:27:04;;;;;;;;;;;16.50;45.10;;;;;;5108718;28;19920;-72
2023/04/07 01:29:34;;;;;;;;;;;16.50;45.10;;;;;;5108448;28;19928;-71
2023/04/07 01:32:01;;;;;;;;;;;16.50;45.20;;;;;;5108781;28;20456;-73
2023/04/07 01:34:28;;;;;;;;;;;16.50;45.20;;;;;;5108765;28;20371;-73
2023/04/07 01:36:54;;;;;;;;;;;16.50;45.20;;;;;;5109704;28;19920;-73
2023/04/07 01:39:21;;;;;;;;;;;16.50;45.20;;;;;;5108750;28;19988;-73
2023/04/07 01:41:48;;;;;;;;;;;16.50;45.30;;;;;;5108332;28;19920;-72
2023/04/07 01:44:13;;;;;;;;;;;16.50;45.30;;;;;;5107919;28;19920;-73
2023/04/07 01:46:39;;;;;;;;;;;16.50;45.30;;;;;;5108225;28;19924;-73
2023/04/07 01:49:05;;;;;;;;;;;16.50;45.30;;;;;;5108629;28;20013;-73
2023/04/07 01:51:31;;;;;;;;;;;16.50;45.40;;;;;;5108112;28;19923;-73
2023/04/07 01:53:58;;;;;;;;;;;16.50;45.30;;;;;;5108495;28;19924;-71
2023/04/07 01:56:23;;;;;;;;;;;16.40;45.30;;;;;;5109371;28;19924;-72
2023/04/07 01:58:49;;;;;;;;;;;16.40;45.30;;;;;;5108068;28;19930;-73
2023/04/07 02:01:14;;;;;;;;;;;16.40;45.40;;;;;;5109347;28;19920;-72
2023/04/07 02:03:45;;;;;;;;;;;16.40;45.40;;;;;;5108127;28;19927;-73
2023/04/07 02:06:12;;;;;;;;;;;16.40;45.40;;;;;;5108242;28;19926;-73
2023/04/07 02:08:41;;;;;;;;;;;16.40;45.40;;;;;;5108422;28;19927;-73
2023/04/07 02:11:07;;;;;;;;;;;16.40;45.50;;;;;;5125420;28;20288;-72
2023/04/07 02:13:34;;;;;;;;;;;16.40;45.50;;;;;;5129527;28;20492;-72
2023/04/07 02:16:01;;;;;;;;;;;16.40;45.50;;;;;;5111449;28;20002;-72
2023/04/07 02:18:26;;;;;;;;;;;16.40;45.60;;;;;;5129499;28;19942;-73
2023/04/07 02:20:52;;;;;;;;;;;16.40;45.60;;;;;;5109399;28;20375;-72
2023/04/07 02:23:18;;;;;;;;;;;16.40;45.60;;;;;;5115476;28;20008;-72
2023/04/07 02:25:43;;;;;;;;;;;16.30;45.60;;;;;;5097480;28;19924;-72
2023/04/07 02:28:09;;;;;;;;;;;16.40;45.60;;;;;;5097585;28;19924;-70
2023/04/07 02:30:35;;;;;;;;;;;16.40;45.70;;;;;;5097268;28;20398;-72
2023/04/07 02:33:00;;;;;;;;;;;16.40;45.70;;;;;;5096507;28;19924;-72
2023/04/07 02:35:26;;;;;;;;;;;16.30;45.60;;;;;;5097232;28;19927;-71
2023/04/07 02:37:52;;;;;;;;;;;16.30;45.60;;;;;;5097076;28;19920;-72
2023/04/07 02:40:17;;;;;;;;;;;16.30;45.70;;;;;;5097177;28;20256;-72
2023/04/07 02:42:43;;;;;;;;;;;16.40;45.70;;;;;;5096992;28;20008;-72
2023/04/07 02:45:09;;;;;;;;;;;16.30;45.70;;;;;;5097444;28;20073;-72
2023/04/07 02:47:35;;;;;;;;;;;16.30;45.70;;;;;;5096975;28;19919;-73
2023/04/07 02:50:00;;;;;;;;;;;16.30;45.80;;;;;;5097320;28;19959;-72
2023/04/07 02:52:26;;;;;;;;;;;16.30;45.80;;;;;;5115113;28;19966;-73
2023/04/07 02:54:51;;;;;;;;;;;16.30;45.80;;;;;;5096839;28;20281;-72
2023/04/07 02:57:17;;;;;;;;;;;16.30;45.80;;;;;;5096792;28;19920;-72
2023/04/07 02:59:43;;;;;;;;;;;16.30;45.80;;;;;;5097009;28;19945;-72
2023/04/07 03:02:08;;;;;;;;;;;16.30;45.80;;;;;;5096777;28;19920;-73
2023/04/07 03:04:34;;;;;;;;;;;16.30;45.80;;;;;;5096520;28;19978;-73
2023/04/07 03:07:00;;;;;;;;;;;16.30;45.80;;;;;;5096903;28;19963;-72
2023/04/07 03:09:26;;;;;;;;;;;16.30;45.80;;;;;;5096457;28;19920;-72
2023/04/07 03:11:51;;;;;;;;;;;16.30;45.90;;;;;;5096531;28;20271;-73
2023/04/07 03:14:17;;;;;;;;;;;16.30;45.90;;;;;;5096772;28;19978;-72
2023/04/07 03:16:42;;;;;;;;;;;16.20;45.90;;;;;;5096777;28;20260;-73
2023/04/07 03:19:08;;;;;;;;;;;16.30;46.00;;;;;;5114803;28;20271;-72
2023/04/07 03:21:35;;;;;;;;;;;16.20;45.90;;;;;;5096676;28;19920;-73
2023/04/07 03:24:00;;;;;;;;;;;16.20;46.00;;;;;;5096154;28;19919;-73
2023/04/07 03:26:26;;;;;;;;;;;16.20;46.00;;;;;;5096263;28;20006;-72
2023/04/07 03:28:52;;;;;;;;;;;16.20;46.00;;;;;;5096652;28;20066;-73
2023/04/07 03:31:17;;;;;;;;;;;16.20;46.00;;;;;;5096105;28;20014;-73
2023/04/07 03:33:43;;;;;;;;;;;16.20;46.00;;;;;;5095316;28;19926;-73
2023/04/07 03:36:08;;;;;;;;;;;16.20;46.10;;;;;;5096049;28;20382;-73
2023/04/07 03:38:34;;;;;;;;;;;16.20;46.00;;;;;;5095898;28;19955;-73
2023/04/07 03:40:59;;;;;;;;;;;16.20;46.10;;;;;;5114179;28;20002;-72
2023/04/07 03:43:25;;;;;;;;;;;16.20;46.10;;;;;;5095887;28;19920;-73
2023/04/07 03:45:52;;;;;;;;;;;16.20;46.10;;;;;;5095887;28;19926;-73
2023/04/07 03:48:17;;;;;;;;;;;16.20;46.20;;;;;;5096031;28;20436;-73
2023/04/07 03:50:44;;;;;;;;;;;16.20;46.20;;;;;;5113963;28;19924;-73
2023/04/07 03:53:10;;;;;;;;;;;16.20;46.20;;;;;;5096003;28;19930;-72
2023/04/07 03:55:35;;;;;;;;;;;16.20;46.20;;;;;;5095825;28;20002;-72
2023/04/07 03:58:01;;;;;;;;;;;16.20;46.20;;;;;;5095206;28;20001;-72
2023/04/07 04:00:27;;;;;;;;;;;16.20;46.20;;;;;;5095654;28;19935;-72
2023/04/07 04:02:52;;;;;;;;;;;16.10;46.20;;;;;;5095543;28;20018;-72
2023/04/07 04:05:18;;;;;;;;;;;16.20;46.20;;;;;;5095390;28;19969;-72
2023/04/07 04:07:44;;;;;;;;;;;16.10;46.20;;;;;;5095689;28;19919;-72
2023/04/07 04:10:09;;;;;;;;;;;16.10;46.20;;;;;;5113254;28;19928;-72
2023/04/07 04:12:35;;;;;;;;;;;16.10;46.20;;;;;;5113492;28;19920;-72
2023/04/07 04:15:00;;;;;;;;;;;16.10;46.20;;;;;;5113782;28;19927;-72
2023/04/07 04:17:26;;;;;;;;;;;16.10;46.30;;;;;;5113736;28;20278;-72
2023/04/07 04:19:53;;;;;;;;;;;16.10;46.40;;;;;;5113558;28;20278;-72
2023/04/07 04:22:18;;;;;;;;;;;16.10;46.40;;;;;;5095708;28;19920;-72
2023/04/07 04:24:44;;;;;;;;;;;16.10;46.40;;;;;;5095114;28;20405;-72
2023/04/07 04:27:09;;;;;;;;;;;16.10;46.40;;;;;;5094996;28;19924;-72
2023/04/07 04:29:35;;;;;;;;;;;16.10;46.40;;;;;;5113271;28;19924;-72
2023/04/07 04:32:01;;;;;;;;;;;16.10;46.50;;;;;;5095080;28;19927;-72
2023/04/07 04:34:26;;;;;;;;;;;16.10;46.50;;;;;;5095224;28;19919;-72
2023/04/07 04:36:52;;;;;;;;;;;16.10;46.50;;;;;;5094861;28;19920;-73
2023/04/07 04:39:17;;;;;;;;;;;16.10;46.50;;;;;;5094957;28;20006;-72
2023/04/07 04:41:43;;;;;;;;;;;16.10;46.50;;;;;;5094945;28;19919;-73
2023/04/07 04:44:09;;;;;;;;;;;16.10;46.60;;;;;;5094600;28;20350;-73
2023/04/07 04:46:34;;;;;;;;;;;16.00;46.50;;;;;;5095028;28;19919;-73
2023/04/07 04:49:00;;;;;;;;;;;16.00;46.50;;;;;;5095060;28;19920;-73
2023/04/07 04:51:26;;;;;;;;;;;16.00;46.50;;;;;;5094624;28;19924;-73
2023/04/07 04:53:51;;;;;;;;;;;16.10;46.60;;;;;;5094975;28;19924;-73
2023/04/07 04:56:17;;;;;;;;;;;16.00;46.60;;;;;;5094896;28;20458;-72
2023/04/07 04:58:45;;;;;;;;;;;16.00;46.60;;;;;;5094872;28;19935;-72
2023/04/07 05:01:11;;;;;;;;;;;16.00;46.60;;;;;;5094506;28;19919;-73
2023/04/07 05:03:36;;;;;;;;;;;16.00;46.60;;;;;;5094574;28;19920;-73
2023/04/07 05:06:02;;;;;;;;;;;16.00;46.60;;;;;;5094967;28;20012;-73
2023/04/07 05:08:27;;;;;;;;;;;16.00;46.60;;;;;;5094510;28;19920;-72
2023/04/07 05:10:54;;;;;;;;;;;16.00;46.70;;;;;;5112636;28;19997;-72
2023/04/07 05:13:19;;;;;;;;;;;16.00;46.70;;;;;;5094312;28;19924;-73
2023/04/07 05:15:45;;;;;;;;;;;16.00;46.70;;;;;;5094488;28;20293;-72
2023/04/07 05:18:11;;;;;;;;;;;16.00;46.80;;;;;;5093740;28;20287;-72
2023/04/07 05:20:36;;;;;;;;;;;16.00;46.80;;;;;;5094759;28;19923;-72
2023/04/07 05:23:02;;;;;;;;;;;16.00;46.80;;;;;;5094555;28;19920;-73
2023/04/07 05:25:27;;;;;;;;;;;16.00;46.90;;;;;;5112726;28;20524;-73
2023/04/07 05:27:53;;;;;;;;;;;16.00;46.90;;;;;;5113060;28;19920;-73
2023/04/07 05:30:18;;;;;;;;;;;15.90;46.90;;;;;;5094351;28;19924;-73
2023/04/07 05:32:44;;;;;;;;;;;15.90;46.90;;;;;;5094506;28;19919;-73
2023/04/07 05:35:10;;;;;;;;;;;15.90;46.90;;;;;;5094592;28;20018;-72
2023/04/07 05:37:35;;;;;;;;;;;15.90;46.90;;;;;;5094564;28;20286;-73
2023/04/07 05:40:01;;;;;;;;;;;15.90;46.90;;;;;;5094592;28;19927;-72
2023/04/07 05:42:26;;;;;;;;;;;15.90;46.90;;;;;;5093626;28;19924;-73
2023/04/07 05:44:52;;;;;;;;;;;15.90;46.90;;;;;;5094256;28;19920;-73
2023/04/07 05:47:17;;;;;;;;;;;15.90;47.00;;;;;;5094482;28;19967;-73
2023/04/07 05:49:46;;;;;;;;;;;15.90;47.00;;;;;;5093528;28;19927;-73
2023/04/07 05:52:12;;;;;;;;;;;15.90;47.00;;;;;;5093984;28;19920;-73
2023/04/07 05:54:39;;;;;;;;;;;15.90;47.00;;;;;;5094045;28;19927;-72
2023/04/07 05:57:08;;;;;;;;;;;15.90;47.10;;;;;;5096262;28;19920;-72
2023/04/07 05:59:33;;;;;;;;;;;15.90;47.10;;;;;;5097978;28;19919;-72
2023/04/07 06:01:59;;;;;;;;;;;15.80;47.10;;;;;;5098220;28;19924;-73
2023/04/07 06:04:25;;;;;;;;;;;15.80;47.10;;;;;;5097864;28;19968;-73
2023/04/07 06:06:53;;;;;;;;;;;15.80;47.10;;;;;;5097785;28;19969;-72
2023/04/07 06:09:21;;;;;;;;;;;15.80;47.10;;;;;;5097409;28;20155;-72
2023/04/07 06:11:46;;;;;;;;;;;15.80;47.10;;;;;;5098068;28;19923;-72
2023/04/07 06:14:12;;;;;;;;;;;15.80;47.20;;;;;;5097785;28;19953;-73
2023/04/07 06:16:37;;;;;;;;;;;15.80;47.20;;;;;;5097959;28;20389;-73
2023/04/07 06:19:03;;;;;;;;;;;15.80;47.20;;;;;;5097526;28;19923;-73
2023/04/07 06:21:29;;;;;;;;;;;15.80;47.20;;;;;;5115998;28;19919;-73
2023/04/07 06:23:55;;;;;;;;;;;15.80;47.30;;;;;;5097428;28;20394;-73
2023/04/07 06:26:20;;;;;;;;;;;15.70;47.20;;;;;;5115769;28;19919;-73
2023/04/07 06:28:46;;;;;;;;;;;15.70;48.00;;;;;;5097680;28;20010;-73
2023/04/07 06:31:11;;;;;;;;;;;15.80;47.30;;;;;;5115486;28;19924;-73
2023/04/07 06:33:37;;;;;;;;;;;15.70;47.30;;;;;;5097672;28;19924;-73
2023/04/07 06:36:02;;;;;;;;;;;15.70;47.30;;;;;;5115461;28;20019;-73
2023/04/07 06:38:28;;;;;;;;;;;15.70;47.30;;;;;;5115606;28;19971;-73
2023/04/07 06:40:53;;;;;;;;;;;15.80;47.40;;;;;;5097107;28;19920;-73
2023/04/07 06:43:19;;;;;;;;;;;15.70;47.40;;;;;;5115500;28;19924;-73
2023/04/07 06:45:45;;;;;;;;;;;15.70;47.40;;;;;;5097343;28;20461;-73
2023/04/07 06:48:10;;;;;;;;;;;15.70;47.40;;;;;;5097559;28;19943;-73
2023/04/07 06:50:37;;;;;;;;;;;15.70;47.50;;;;;;5115161;28;19920;-73
2023/04/07 06:53:03;;;;;;;;;;;15.70;47.50;;;;;;5096881;28;19924;-72
2023/04/07 06:55:28;;;;;;;;;;;15.70;47.50;;;;;;5096846;28;19920;-72
2023/04/07 06:57:54;;;;;;;;;;;15.70;47.50;;;;;;5115116;28;19961;-72
2023/04/07 07:00:21;;;;;;;;;;;15.70;47.50;;;;;;5097175;28;19976;-71
2023/04/07 07:02:47;;;;;;;;;;;15.70;47.60;;;;;;5097102;28;19927;-72
2023/04/07 07:05:13;;;;;;;;;;;15.70;47.60;;;;;;5096985;28;19919;-71
2023/04/07 07:07:39;;;;;;;;;;;15.70;47.60;;;;;;5096808;28;20278;-71
2023/04/07 07:10:05;;;;;;;;;;;15.60;47.60;;;;;;5114688;28;19969;-72
2023/04/07 07:12:31;;;;;;;;;;;15.70;47.70;;;;;;5096514;28;19924;-72
2023/04/07 07:14:56;;;;;;;;;;;15.60;47.60;;;;;;5114755;28;19927;-71
2023/04/07 07:17:22;;;;;;;;;;;15.70;47.70;;;;;;5114464;28;19920;-71
2023/04/07 07:19:47;;;;;;;;;;;15.70;47.70;;;;;;5096458;28;19920;-72
2023/04/07 07:22:13;;;;;;;;;;;15.70;47.70;;;;;;5096551;28;19923;-72
2023/04/07 07:24:38;;;;;;;;;;;15.70;47.70;;;;;;5096431;28;19919;-72
2023/04/07 07:27:04;;;;;;;;;;;15.60;47.70;;;;;;5096532;28;19973;-72
2023/04/07 07:29:30;;;;;;;;;;;15.70;48.40;;;;;;5114442;28;19931;-72
2023/04/07 07:31:55;;;;;;;;;;;15.70;47.70;;;;;;5096463;28;19920;-72
2023/04/07 07:34:21;;;;;;;;;;;15.70;47.70;;;;;;5114646;28;19920;-72
2023/04/07 07:36:46;;;;;;;;;;;15.70;47.80;;;;;;5079154;28;19919;-72
2023/04/07 07:39:13;;;;;;;;;;;15.70;47.90;;;;;;5096356;28;20010;-72
2023/04/07 07:41:38;;;;;;;;;;;15.70;47.90;;;;;;5114430;28;19993;-72
2023/04/07 07:44:04;;;;;;;;;;;15.70;47.90;;;;;;5096203;28;19920;-72
2023/04/07 07:46:29;;;;;;;;;;;15.60;47.90;;;;;;5096017;28;19923;-73
2023/04/07 07:48:55;;;;;;;;;;;15.60;47.90;;;;;;5095828;28;19969;-73
2023/04/07 07:51:20;;;;;;;;;;;15.70;48.00;;;;;;5114016;28;19924;-73
2023/04/07 07:53:46;;;;;;;;;;;15.70;48.10;;;;;;5095650;28;19968;-72
2023/04/07 07:56:12;;;;;;;;;;;15.70;48.10;;;;;;5095679;28;19978;-72
2023/04/07 07:58:37;;;;;;;;;;;15.70;48.10;;;;;;5095542;28;19984;-71
2023/04/07 08:01:03;;;;;;;;;;;15.70;48.10;;;;;;5095876;28;19920;-72
2023/04/07 08:03:28;;;;;;;;;;;15.60;48.00;;;;;;5113612;28;19923;-72
2023/04/07 08:05:54;;;;;;;;;;;15.70;48.10;;;;;;5095871;28;19919;-72
2023/04/07 08:08:20;;;;;;;;;;;15.70;48.20;;;;;;5095754;28;19931;-72
2023/04/07 08:10:45;;;;;;;;;;;15.60;48.20;;;;;;5095263;28;19923;-72
2023/04/07 08:13:11;;;;;;;;;;;15.60;48.20;;;;;;5114037;28;19920;-72
2023/04/07 08:15:36;;;;;;;;;;;15.60;48.20;;;;;;5095649;28;19923;-72
2023/04/07 08:18:03;;;;;;;;;;;15.70;48.30;;;;;;5095106;28;19962;-72
2023/04/07 08:20:29;;;;;;;;;;;15.70;48.30;;;;;;5113210;28;19920;-72
2023/04/07 08:22:55;;;;;;;;;;;15.60;48.30;;;;;;5095054;28;19965;-73
2023/04/07 08:25:20;;;;;;;;;;;15.70;48.40;;;;;;5113549;28;20324;-72
2023/04/07 08:27:46;;;;;;;;;;;15.70;48.40;;;;;;5094542;28;19941;-72
2023/04/07 08:30:12;;;;;;;;;;;15.60;48.30;;;;;;5113201;28;19971;-73
2023/04/07 08:32:39;;;;;;;;;;;15.70;48.40;;;;;;5095128;28;19927;-72
2023/04/07 08:35:05;;;;;;;;;;;15.60;48.30;;;;;;5113110;28;19946;-73
2023/04/07 08:37:31;;;;;;;;;;;15.70;48.40;;;;;;5078576;28;19919;-73
2023/04/07 08:39:57;;;;;;;;;;;15.70;48.40;;;;;;5094828;28;19926;-72
2023/04/07 08:42:26;;;;;;;;;;;15.70;48.40;;;;;;5095326;28;19927;-73
2023/04/07 08:44:52;;;;;;;;;;;15.70;48.40;;;;;;5113010;28;19972;-73
2023/04/07 08:47:18;;;;;;;;;;;15.70;48.40;;;;;;5113007;28;19920;-73
2023/04/07 08:49:46;;;;;;;;;;;15.70;48.40;;;;;;5094589;28;19924;-70
2023/04/07 08:52:12;;;;;;;;;;;15.70;48.50;;;;;;5113036;28;20192;-72
2023/04/07 08:54:38;;;;;;;;;;;15.70;49.30;;;;;;5094688;28;19969;-72
2023/04/07 08:57:04;;;;;;;;;;;15.70;48.60;;;;;;5095063;28;19920;-72
2023/04/07 08:59:32;;;;;;;;;;;15.60;48.60;;;;;;5094744;28;19924;-73
2023/04/07 09:01:58;;;;;;;;;;;15.70;48.70;;;;;;5112953;28;19923;-73
2023/04/07 09:04:23;;;;;;;;;;;15.70;48.70;;;;;;5094560;28;20014;-69
2023/04/07 09:06:49;;;;;;;;;;;15.70;48.80;;;;;;5113074;28;20080;-69
2023/04/07 09:09:15;;;;;;;;;;;15.70;48.80;;;;;;5094694;28;19919;-71
2023/04/07 09:11:40;;;;;;;;;;;15.60;48.80;;;;;;5094401;28;19961;-72
2023/04/07 09:14:06;;;;;;;;;;;15.70;48.90;;;;;;5094815;28;19980;-72
2023/04/07 09:16:32;;;;;;;;;;;15.70;48.90;;;;;;5094422;28;20375;-69
2023/04/07 09:18:58;;;;;;;;;;;15.60;48.80;;;;;;5094960;28;19920;-71
2023/04/07 09:21:23;;;;;;;;;;;15.60;48.80;;;;;;5112635;28;19977;-72
2023/04/07 09:23:49;;;;;;;;;;;15.60;48.90;;;;;;5094676;28;19947;-72
2023/04/07 09:28:58;;;;;;;;;;;15.60;48.90;;;;;;5110333;27;19919;-72
2023/04/07 09:31:45;;;;;;;;;;;15.60;49.00;;;;;;5109133;28;19920;-72
2023/04/07 09:34:26;;;;;;;;;;;15.60;49.10;;;;;;5109178;28;19919;-73
2023/04/07 09:36:52;;;;;;;;;;;15.60;49.10;;;;;;5108998;28;19919;-72
2023/04/07 09:39:18;;;;;;;;;;;15.60;49.20;;;;;;5109170;28;20425;-73
2023/04/07 09:41:44;;;;;;;;;;;15.60;49.10;;;;;;5108952;28;20390;-72
2023/04/07 09:44:09;;;;;;;;;;;15.60;49.20;;;;;;5108696;28;19931;-72
2023/04/07 09:46:47;;;;;;;;;;;15.60;49.20;;;;;;5108476;28;19920;-73
2023/04/07 09:49:13;;;;;;;;;;;15.60;49.30;;;;;;5107915;28;19920;-70
2023/04/07 09:51:50;;;;;;;;;;;15.60;49.30;;;;;;5108232;28;19920;-73
2023/04/07 09:54:30;;;;;;;;;;;15.60;49.40;;;;;;5109733;28;20303;-72
2023/04/07 09:56:57;;;;;;;;;;;15.60;49.40;;;;;;5108642;28;19924;-72
2023/04/07 09:59:23;;;;;;;;;;;15.60;49.40;;;;;;5108850;28;20286;-72
2023/04/07 10:01:48;;;;;;;;;;;15.50;49.30;;;;;;5108642;28;19920;-72
2023/04/07 10:04:16;;;;;;;;;;;15.60;49.50;;;;;;5108665;28;19920;-72
2023/04/07 10:06:42;;;;;;;;;;;15.60;49.50;;;;;;5108102;28;19924;-72
2023/04/07 10:09:09;;;;;;;;;;;15.60;49.50;;;;;;5108569;28;19981;-72
2023/04/07 10:11:36;;;;;;;;;;;15.60;49.50;;;;;;5108287;28;20279;-72
2023/04/07 10:14:02;;;;;;;;;;;15.60;49.40;;;;;;5109469;28;19955;-70
2023/04/07 10:16:28;;;;;;;;;;;15.60;49.50;;;;;;5109437;28;20405;-72
2023/04/07 10:18:53;;;;;;;;;;;15.60;49.60;;;;;;5109253;28;19920;-73
2023/04/07 10:21:19;;;;;;;;;;;15.60;49.50;;;;;;5108376;28;19947;-73
2023/04/07 10:23:51;;;;;;;;;;;15.60;49.50;;;;;;5107900;28;19920;-72
2023/04/07 10:26:18;;;;;;;;;;;15.60;49.60;;;;;;5107912;28;20372;-70
2023/04/07 10:28:45;;;;;;;;;;;15.60;49.60;;;;;;5107511;28;19934;-73
2023/04/07 10:31:11;;;;;;;;;;;15.60;49.60;;;;;;5107828;28;19970;-73
2023/04/07 10:33:52;;;;;;;;;;;15.60;49.60;;;;;;5109180;28;19967;-73
2023/04/07 10:36:19;;;;;;;;;;;15.60;49.70;;;;;;5107771;28;19920;-72
2023/04/07 10:39:05;;;;;;;;;;;15.50;49.70;;;;;;5102870;28;19926;-73
2023/04/07 10:41:32;;;;;;;;;;;15.50;49.70;;;;;;5093881;28;19920;-73
2023/04/07 10:43:57;;;;;;;;;;;15.60;49.70;;;;;;5093976;28;19920;-73
2023/04/07 10:46:23;;;;;;;;;;;15.50;49.80;;;;;;5094005;28;19952;-72
2023/04/07 10:49:08;;;;;;;;;;;15.50;49.70;;;;;;5093879;28;19928;-72
2023/04/07 10:51:34;;;;;;;;;;;15.60;49.70;;;;;;5094974;28;19973;-72
2023/04/07 10:54:21;;;;;;;;;;;15.50;49.60;;;;;;5095250;28;19924;-73
2023/04/07 11:00:03;;;;;;;;;;;15.60;49.80;;;;;;5089754;28;19919;-72
2023/04/07 11:05:18;;;;;;;;;;;15.60;49.80;;;;;;5110234;27;19912;-73
2023/04/07 11:07:45;;;;;;;;;;;15.60;49.80;;;;;;5109309;28;20319;-70
2023/04/07 11:10:11;;;;;;;;;;;15.60;49.90;;;;;;5108885;28;19977;-72
2023/04/07 11:12:36;;;;;;;;;;;15.70;49.90;;;;;;5108873;28;19920;-72
2023/04/07 11:15:19;;;;;;;;;;;15.60;49.90;;;;;;5143540;27;19920;-70
2023/04/07 11:17:44;;;;;;;;;;;15.60;49.90;;;;;;5108766;28;20010;-72
2023/04/07 11:20:10;;;;;;;;;;;15.60;49.80;;;;;;5108677;28;20022;-72
2023/04/07 11:22:36;;;;;;;;;;;15.60;49.90;;;;;;5108653;28;19920;-70
2023/04/07 11:25:01;;;;;;;;;;;15.60;49.80;;;;;;5109728;28;19979;-73
2023/04/07 11:27:28;;;;;;;;;;;15.60;49.80;;;;;;5108609;28;19973;-73
2023/04/07 11:29:53;;;;;;;;;;;15.60;49.90;;;;;;5108460;28;19926;-73
2023/04/07 11:32:24;;;;;;;;;;;15.60;49.90;;;;;;5108831;28;20006;-73
2023/04/07 11:34:50;;;;;;;;;;;15.60;49.90;;;;;;5108317;28;19920;-71
2023/04/07 11:37:24;;;;;;;;;;;15.60;50.00;;;;;;5109739;28;19965;-70
2023/04/07 11:39:51;;;;;;;;;;;15.60;50.00;;;;;;5108539;28;20050;-72
2023/04/07 11:42:30;;;;;;;;;;;15.60;49.90;;;;;;5108256;28;19962;-73
2023/04/07 11:44:56;;;;;;;;;;;15.60;50.00;;;;;;5108265;28;19924;-74
2023/04/07 11:47:32;;;;;;;;;;;15.60;50.00;;;;;;5108268;28;20022;-73
2023/04/07 11:49:57;;;;;;;;;;;15.60;50.00;;;;;;5142848;27;19920;-72
2023/04/07 11:52:24;;;;;;;;;;;15.60;50.10;;;;;;5108082;28;20260;-70
2023/04/07 11:54:50;;;;;;;;;;;15.60;50.00;;;;;;5107915;28;20405;-72
2023/04/07 11:57:31;;;;;;;;;;;15.60;50.10;;;;;;5109326;28;19920;-72
2023/04/07 12:00:12;;;;;;;;;;;15.60;50.10;;;;;;5108232;28;20271;-73
2023/04/07 12:02:38;;;;;;;;;;;15.60;50.10;;;;;;5109118;28;19967;-73
2023/04/07 12:05:04;;;;;;;;;;;15.50;50.10;;;;;;5129138;28;20408;-73
2023/04/07 12:07:30;;;;;;;;;;;15.50;50.00;;;;;;5129639;28;19920;-73
2023/04/07 12:09:56;;;;;;;;;;;15.50;50.00;;;;;;5111149;28;19923;-69
2023/04/07 12:12:26;;;;;;;;;;;15.50;50.10;;;;;;5111127;28;19926;-71
2023/04/07 12:14:51;;;;;;;;;;;15.60;50.10;;;;;;5124874;28;19927;-71
2023/04/07 12:17:23;;;;;;;;;;;15.50;50.10;;;;;;5097736;28;19920;-72
2023/04/07 12:19:48;;;;;;;;;;;15.50;50.10;;;;;;5115661;28;19923;-73
2023/04/07 12:22:14;;;;;;;;;;;15.50;50.20;;;;;;5097326;28;19926;-73
2023/04/07 12:24:39;;;;;;;;;;;15.50;50.20;;;;;;5097331;28;20030;-70
2023/04/07 12:27:05;;;;;;;;;;;15.50;50.20;;;;;;5096587;28;19930;-73
2023/04/07 12:29:31;;;;;;;;;;;15.50;50.30;;;;;;5097175;28;19927;-73
2023/04/07 12:31:56;;;;;;;;;;;15.50;50.40;;;;;;5097582;28;19920;-74
2023/04/07 12:34:22;;;;;;;;;;;15.60;50.50;;;;;;5097095;28;19919;-73
2023/04/07 12:36:47;;;;;;;;;;;15.50;50.40;;;;;;5097372;28;19944;-73
2023/04/07 12:39:14;;;;;;;;;;;15.50;50.40;;;;;;5097034;28;19919;-72
2023/04/07 12:41:40;;;;;;;;;;;15.50;50.50;;;;;;5115130;28;20512;-73
2023/04/07 12:44:05;;;;;;;;;;;15.50;51.20;;;;;;5115285;28;20006;-69
2023/04/07 12:46:31;;;;;;;;;;;15.50;50.40;;;;;;5097154;28;19919;-73
2023/04/07 12:48:56;;;;;;;;;;;15.50;50.40;;;;;;5096815;28;19926;-74
2023/04/07 12:51:22;;;;;;;;;;;15.50;50.40;;;;;;5097124;28;19924;-73
2023/04/07 12:53:47;;;;;;;;;;;15.50;50.40;;;;;;5096985;28;19992;-73
2023/04/07 12:56:13;;;;;;;;;;;15.50;50.50;;;;;;5115032;28;20452;-72
2023/04/07 12:58:39;;;;;;;;;;;15.50;50.50;;;;;;5114954;28;20019;-73
2023/04/07 13:01:05;;;;;;;;;;;15.50;50.50;;;;;;5096468;28;19973;-73
2023/04/07 13:03:30;;;;;;;;;;;15.50;50.50;;;;;;5096360;28;19931;-73
2023/04/07 13:06:00;;;;;;;;;;;15.40;50.40;;;;;;5096750;28;19965;-70
2023/04/07 13:08:26;;;;;;;;;;;15.50;50.50;;;;;;5096472;28;19920;-73
2023/04/07 13:10:51;;;;;;;;;;;15.40;50.30;;;;;;5114814;28;19919;-73
2023/04/07 13:13:17;;;;;;;;;;;15.50;50.50;;;;;;5096711;28;20274;-73
2023/04/07 13:15:42;;;;;;;;;;;15.40;50.40;;;;;;5096334;28;20430;-72
2023/04/07 13:18:08;;;;;;;;;;;15.40;50.30;;;;;;5096529;28;19920;-73
2023/04/07 13:20:33;;;;;;;;;;;15.40;50.30;;;;;;5096508;28;19927;-73
2023/04/07 13:22:59;;;;;;;;;;;15.40;50.40;;;;;;5096039;28;19919;-73
2023/04/07 13:25:25;;;;;;;;;;;15.50;50.40;;;;;;5096395;28;19927;-73
2023/04/07 13:27:50;;;;;;;;;;;15.50;50.40;;;;;;5095028;28;19923;-73
2023/04/07 13:30:16;;;;;;;;;;;15.40;50.30;;;;;;5096337;28;19927;-73
2023/04/07 13:32:41;;;;;;;;;;;15.40;50.30;;;;;;5096300;28;19927;-73
2023/04/07 13:35:07;;;;;;;;;;;15.50;50.40;;;;;;5096141;28;19924;-73
2023/04/07 13:37:33;;;;;;;;;;;15.50;50.40;;;;;;5096199;28;20438;-71
2023/04/07 13:39:58;;;;;;;;;;;15.50;50.40;;;;;;5095857;28;20345;-74
2023/04/07 13:42:24;;;;;;;;;;;15.50;50.40;;;;;;5095759;28;20014;-73
2023/04/07 13:44:50;;;;;;;;;;;15.50;50.30;;;;;;5095688;28;19936;-74
2023/04/07 13:47:20;;;;;;;;;;;15.50;50.30;;;;;;5095437;28;19978;-73
2023/04/07 13:49:46;;;;;;;;;;;15.50;50.30;;;;;;5113827;28;19927;-73
2023/04/07 13:52:12;;;;;;;;;;;15.50;50.30;;;;;;5095631;28;19923;-73
2023/04/07 13:54:38;;;;;;;;;;;15.50;50.30;;;;;;5095620;28;20355;-74
2023/04/07 13:57:04;;;;;;;;;;;15.60;50.30;;;;;;5095610;28;19984;-69
2023/04/07 13:59:29;;;;;;;;;;;15.50;50.30;;;;;;5095668;28;19919;-73
2023/04/07 14:01:55;;;;;;;;;;;15.50;50.30;;;;;;5095315;28;19919;-73
2023/04/07 14:04:21;;;;;;;;;;;15.50;50.20;;;;;;5094371;28;19931;-73
2023/04/07 14:06:47;;;;;;;;;;;15.50;50.20;;;;;;5095238;28;19927;-71
2023/04/07 14:09:12;;;;;;;;;;;15.50;50.10;;;;;;5095268;28;19920;-71
2023/04/07 14:11:38;;;;;;;;;;;15.50;50.10;;;;;;5113615;28;19919;-77
2023/04/07 14:14:03;;;;;;;;;;;15.50;50.10;;;;;;5095387;28;19920;-75
2023/04/07 14:16:30;;;;;;;;;;;15.50;50.10;;;;;;5095423;28;19920;-75
2023/04/07 14:18:56;;;;;;;;;;;15.60;50.10;;;;;;5113424;28;19926;-73
2023/04/07 14:21:21;;;;;;;;;;;15.60;50.20;;;;;;5095298;28;20355;-75
2023/04/07 14:23:47;;;;;;;;;;;15.60;50.20;;;;;;5094990;28;19930;-74
2023/04/07 14:26:12;;;;;;;;;;;15.60;50.20;;;;;;5095032;28;19920;-73